createdAt,value
2022-11-07T00:00:58.038Z,9.15
2022-11-07T00:01:58.120Z,9.08
2022-11-07T00:02:58.144Z,9.04
2022-11-07T00:03:58.128Z,9.01
2022-11-07T00:04:58.160Z,9.08
2022-11-07T00:05:58.186Z,9.01
2022-11-07T00:06:58.217Z,9.15
2022-11-07T00:07:58.247Z,9.06
2022-11-07T00:08:58.278Z,9.01
2022-11-07T00:09:58.308Z,9.00
2022-11-07T00:10:58.340Z,9.01
2022-11-07T00:11:58.367Z,9.04
2022-11-07T00:12:58.401Z,8.96
2022-11-07T00:13:58.432Z,8.98
2022-11-07T00:14:58.461Z,8.98
2022-11-07T00:15:58.489Z,9.06
2022-11-07T00:16:58.519Z,9.00
2022-11-07T00:17:58.547Z,8.98
2022-11-07T00:18:58.616Z,9.01
2022-11-07T00:19:58.609Z,9.04
2022-11-07T00:20:58.641Z,9.08
2022-11-07T00:21:58.671Z,8.94
2022-11-07T00:22:58.704Z,9.03
2022-11-07T00:24:05.928Z,9.01
2022-11-07T00:26:02.773Z,8.93
2022-11-07T00:27:02.904Z,9.00
2022-11-07T00:29:06.844Z,8.97
2022-11-07T00:30:06.865Z,8.98
2022-11-07T00:32:10.910Z,9.06
2022-11-07T00:33:10.936Z,9.06
2022-11-07T00:35:15.013Z,9.00
2022-11-07T00:36:15.005Z,9.00
2022-11-07T00:38:19.049Z,8.97
2022-11-07T00:39:19.073Z,8.97
2022-11-07T00:41:23.116Z,9.00
2022-11-07T00:42:23.136Z,8.97
2022-11-07T00:44:27.220Z,8.97
2022-11-07T00:45:27.204Z,9.01
2022-11-07T00:47:31.252Z,9.06
2022-11-07T00:48:31.284Z,8.98
2022-11-07T00:50:35.353Z,9.04
2022-11-07T00:51:35.342Z,9.00
2022-11-07T00:53:39.385Z,8.91
2022-11-07T00:54:39.410Z,8.93
2022-11-07T00:56:32.407Z,8.96
2022-11-07T00:57:32.410Z,8.94
2022-11-07T00:59:36.476Z,9.00
2022-11-07T01:00:36.465Z,9.01
2022-11-07T01:02:40.676Z,9.08
2022-11-07T01:03:40.531Z,9.12
2022-11-07T01:05:44.611Z,9.22
2022-11-07T01:06:44.597Z,9.15
2022-11-07T01:08:48.642Z,9.15
2022-11-07T01:09:48.682Z,9.13
2022-11-07T01:11:52.747Z,9.16
2022-11-07T01:12:52.737Z,9.20
2022-11-07T01:14:56.777Z,9.15
2022-11-07T01:15:56.802Z,9.15
2022-11-07T01:18:00.881Z,9.16
2022-11-07T01:19:00.874Z,9.15
2022-11-07T01:21:04.996Z,9.27
2022-11-07T01:22:05.020Z,9.27
2022-11-07T01:24:09.068Z,9.26
2022-11-07T01:25:09.087Z,9.30
2022-11-07T01:27:02.049Z,9.24
2022-11-07T01:28:02.073Z,9.32
2022-11-07T01:30:06.124Z,9.37
2022-11-07T01:31:06.143Z,9.37
2022-11-07T01:33:10.225Z,9.42
2022-11-07T01:34:10.214Z,9.44
2022-11-07T01:36:14.304Z,9.44
2022-11-07T01:37:14.290Z,9.41
2022-11-07T01:39:18.336Z,9.40
2022-11-07T01:40:18.357Z,9.41
2022-11-07T01:42:22.437Z,9.42
2022-11-07T01:43:22.429Z,9.38
2022-11-07T01:45:26.474Z,9.38
2022-11-07T01:46:26.497Z,9.41
2022-11-07T01:48:30.585Z,9.44
2022-11-07T01:49:30.577Z,9.41
2022-11-07T01:51:34.620Z,9.52
2022-11-07T01:52:34.691Z,9.50
2022-11-07T01:54:38.686Z,9.52
2022-11-07T01:55:38.712Z,9.55
2022-11-07T01:57:42.795Z,9.53
2022-11-07T01:58:42.785Z,9.49
2022-11-07T02:00:46.834Z,9.53
2022-11-07T02:01:46.923Z,9.56
2022-11-07T02:03:50.976Z,9.59
2022-11-07T02:04:50.968Z,9.58
2022-11-07T02:06:43.933Z,9.58
2022-11-07T02:07:43.955Z,9.55
2022-11-07T02:09:47.997Z,9.59
2022-11-07T02:10:48.030Z,9.53
2022-11-07T02:12:52.070Z,9.59
2022-11-07T02:13:52.093Z,9.52
2022-11-07T02:15:56.140Z,9.55
2022-11-07T02:16:56.193Z,9.56
2022-11-07T02:19:00.208Z,9.53
2022-11-07T02:20:00.231Z,9.63
2022-11-07T02:22:04.311Z,9.53
2022-11-07T02:23:04.301Z,9.59
2022-11-07T02:25:08.347Z,9.59
2022-11-07T02:26:08.370Z,9.55
2022-11-07T02:28:12.451Z,9.44
2022-11-07T02:29:12.441Z,9.53
2022-11-07T02:31:16.554Z,9.56
2022-11-07T02:32:16.513Z,9.58
2022-11-07T02:34:20.592Z,9.59
2022-11-07T02:35:20.580Z,9.53
2022-11-07T02:37:13.546Z,9.56
2022-11-07T02:38:13.633Z,9.52
2022-11-07T02:40:17.617Z,9.59
2022-11-07T02:41:17.639Z,9.55
2022-11-07T02:43:21.688Z,9.63
2022-11-07T02:44:21.709Z,9.62
2022-11-07T02:46:25.789Z,9.56
2022-11-07T02:47:25.780Z,9.67
2022-11-07T02:49:29.874Z,9.71
2022-11-07T02:50:29.847Z,9.52
2022-11-07T02:52:33.900Z,9.65
2022-11-07T02:53:33.931Z,9.52
2022-11-07T02:55:37.969Z,9.63
2022-11-07T02:56:38.030Z,9.55
2022-11-07T02:58:42.036Z,9.68
2022-11-07T02:59:42.067Z,9.71
2022-11-07T03:01:47.260Z,9.70
2022-11-07T03:02:47.601Z,9.62
2022-11-07T03:04:51.223Z,9.68
2022-11-07T03:05:51.212Z,9.74
2022-11-07T03:07:55.260Z,9.73
2022-11-07T03:08:55.281Z,9.73
2022-11-07T03:10:59.328Z,9.71
2022-11-07T03:11:59.354Z,9.71
2022-11-07T03:14:03.393Z,9.71
2022-11-07T03:15:03.457Z,9.68
2022-11-07T03:16:56.445Z,9.71
2022-11-07T03:17:56.432Z,9.70
2022-11-07T03:20:00.523Z,9.75
2022-11-07T03:21:00.507Z,9.83
2022-11-07T03:23:04.553Z,9.91
2022-11-07T03:24:04.575Z,9.81
2022-11-07T03:26:08.618Z,9.77
2022-11-07T03:27:08.644Z,9.75
2022-11-07T03:29:12.686Z,9.77
2022-11-07T03:30:12.710Z,9.74
2022-11-07T03:32:16.797Z,9.78
2022-11-07T03:33:17.162Z,9.85
2022-11-07T03:35:20.829Z,9.77
2022-11-07T03:36:20.850Z,9.75
2022-11-07T03:38:24.892Z,9.80
2022-11-07T03:39:26.095Z,9.81
2022-11-07T03:41:28.961Z,9.83
2022-11-07T03:42:28.982Z,9.81
2022-11-07T03:44:33.060Z,9.83
2022-11-07T03:45:33.048Z,9.96
2022-11-07T03:47:37.093Z,9.93
2022-11-07T03:48:37.116Z,9.88
2022-11-07T03:50:41.213Z,9.91
2022-11-07T03:51:41.185Z,9.91
2022-11-07T03:53:45.231Z,10.01
2022-11-07T03:54:45.257Z,9.98
2022-11-07T03:56:38.218Z,9.99
2022-11-07T03:57:38.241Z,9.98
2022-11-07T03:59:42.325Z,9.98
2022-11-07T04:00:42.312Z,9.95
2022-11-07T04:02:46.630Z,9.91
2022-11-07T04:03:46.383Z,9.93
2022-11-07T04:05:50.461Z,9.93
2022-11-07T04:06:50.450Z,9.91
2022-11-07T04:08:54.500Z,9.88
2022-11-07T04:09:54.593Z,9.99
2022-11-07T04:11:58.570Z,9.92
2022-11-07T04:12:58.588Z,9.89
2022-11-07T04:15:02.639Z,9.98
2022-11-07T04:16:02.661Z,9.91
2022-11-07T04:18:06.759Z,10.07
2022-11-07T04:19:06.731Z,9.91
2022-11-07T04:21:10.895Z,9.96
2022-11-07T04:22:10.804Z,10.01
2022-11-07T04:24:14.850Z,9.95
2022-11-07T04:25:14.875Z,9.96
2022-11-07T04:27:07.847Z,9.95
2022-11-07T04:28:07.859Z,9.89
2022-11-07T04:30:11.905Z,10.04
2022-11-07T04:31:11.930Z,9.95
2022-11-07T04:33:16.406Z,10.10
2022-11-07T04:34:16.006Z,10.10
2022-11-07T04:36:20.438Z,10.09
2022-11-07T04:37:20.270Z,10.04
2022-11-07T04:39:24.117Z,10.01
2022-11-07T04:40:24.141Z,10.07
2022-11-07T04:44:10.961Z,10.02
2022-11-07T04:45:10.950Z,10.13
2022-11-07T04:47:03.913Z,10.04
2022-11-07T04:48:03.939Z,10.04
2022-11-07T04:50:07.983Z,10.10
2022-11-07T04:51:08.009Z,10.02
2022-11-07T04:53:12.328Z,10.07
2022-11-07T04:54:12.079Z,10.06
2022-11-07T04:56:16.121Z,10.11
2022-11-07T04:57:16.147Z,10.13
2022-11-07T04:59:20.190Z,10.11
2022-11-07T05:00:20.220Z,10.09
2022-11-07T05:02:24.407Z,10.07
2022-11-07T05:03:24.286Z,10.11
2022-11-07T05:05:28.364Z,10.09
2022-11-07T05:06:28.354Z,9.98
2022-11-07T05:08:32.443Z,10.04
2022-11-07T05:09:32.428Z,10.01
2022-11-07T05:11:36.468Z,10.06
2022-11-07T05:12:36.500Z,10.04
2022-11-07T05:14:40.545Z,10.07
2022-11-07T05:15:40.567Z,10.06
2022-11-07T05:17:44.618Z,10.14
2022-11-07T05:18:44.640Z,10.04
2022-11-07T05:20:48.700Z,10.18
2022-11-07T05:21:48.742Z,10.18
2022-11-07T05:23:52.769Z,10.17
2022-11-07T05:24:52.796Z,10.14
2022-11-07T05:26:45.793Z,10.14
2022-11-07T05:27:45.780Z,10.16
2022-11-07T05:29:49.826Z,10.20
2022-11-07T05:30:49.850Z,10.18
2022-11-07T05:32:53.928Z,10.24
2022-11-07T05:33:53.919Z,10.18
2022-11-07T05:35:57.967Z,10.24
2022-11-07T05:36:57.990Z,10.29
2022-11-07T05:39:02.035Z,10.31
2022-11-07T05:40:02.060Z,10.20
2022-11-07T05:42:06.153Z,10.22
2022-11-07T05:43:06.128Z,10.17
2022-11-07T05:45:10.215Z,10.25
2022-11-07T05:46:10.203Z,10.17
2022-11-07T05:48:14.254Z,10.14
2022-11-07T05:49:14.277Z,10.20
2022-11-07T05:51:18.539Z,10.17
2022-11-07T05:52:18.340Z,10.22
2022-11-07T05:54:22.423Z,10.17
2022-11-07T05:55:22.418Z,10.16
2022-11-07T05:57:15.438Z,10.16
2022-11-07T05:58:15.401Z,10.17
2022-11-07T06:00:19.454Z,10.16
2022-11-07T06:01:19.478Z,10.11
2022-11-07T06:03:23.604Z,10.17
2022-11-07T06:04:23.552Z,10.20
2022-11-07T06:06:27.623Z,10.24
2022-11-07T06:07:27.619Z,10.20
2022-11-07T06:09:31.700Z,10.17
2022-11-07T06:10:31.691Z,10.20
2022-11-07T06:12:35.737Z,10.17
2022-11-07T06:13:35.763Z,10.20
2022-11-07T06:15:39.807Z,10.24
2022-11-07T06:16:39.831Z,10.20
2022-11-07T06:18:43.880Z,10.29
2022-11-07T06:19:43.901Z,10.22
2022-11-07T06:21:47.980Z,10.18
2022-11-07T06:22:47.974Z,10.28
2022-11-07T06:24:52.067Z,10.24
2022-11-07T06:25:52.042Z,10.31
2022-11-07T06:27:56.093Z,10.18
2022-11-07T06:28:56.112Z,10.24
2022-11-07T06:31:00.156Z,10.22
2022-11-07T06:32:00.180Z,10.25
2022-11-07T06:34:04.268Z,10.28
2022-11-07T06:35:04.256Z,10.24
2022-11-07T06:37:02.817Z,10.32
2022-11-07T06:37:57.245Z,10.29
2022-11-07T06:40:01.293Z,10.32
2022-11-07T06:41:01.314Z,10.34
2022-11-07T06:43:05.359Z,10.20
2022-11-07T06:44:05.384Z,10.20
2022-11-07T06:46:09.429Z,10.20
2022-11-07T06:47:09.454Z,10.17
2022-11-07T06:49:13.533Z,10.22
2022-11-07T06:50:13.524Z,10.18
2022-11-07T06:52:17.704Z,10.17
2022-11-07T06:53:18.046Z,10.17
2022-11-07T06:55:21.674Z,10.17
2022-11-07T06:56:21.702Z,10.24
2022-11-07T06:58:26.720Z,10.24
2022-11-07T06:59:25.780Z,10.17
2022-11-07T07:01:29.938Z,10.22
2022-11-07T07:02:56.966Z,10.32
2022-11-07T07:04:33.893Z,10.29
2022-11-07T07:05:33.924Z,10.26
2022-11-07T07:07:37.999Z,10.31
2022-11-07T07:08:37.988Z,10.31
2022-11-07T07:10:42.034Z,10.35
2022-11-07T07:11:42.057Z,10.35
2022-11-07T07:13:46.104Z,10.32
2022-11-07T07:14:46.127Z,10.32
2022-11-07T07:16:39.124Z,10.34
2022-11-07T07:17:39.149Z,10.31
2022-11-07T07:19:43.222Z,10.34
2022-11-07T07:20:43.212Z,10.34
2022-11-07T07:22:50.264Z,10.32
2022-11-07T07:23:47.281Z,10.32
2022-11-07T07:25:51.328Z,10.39
2022-11-07T07:26:51.354Z,10.34
2022-11-07T07:28:55.439Z,10.39
2022-11-07T07:29:55.423Z,10.35
2022-11-07T07:31:59.470Z,10.43
2022-11-07T07:32:59.512Z,10.35
2022-11-07T07:33:59.527Z,10.39
2022-11-07T07:34:59.555Z,10.43
2022-11-07T07:35:59.589Z,10.42
2022-11-07T07:36:59.623Z,10.46
2022-11-07T07:37:59.745Z,10.43
2022-11-07T07:38:59.677Z,10.49
2022-11-07T07:39:59.711Z,10.55
2022-11-07T07:40:59.747Z,10.55
2022-11-07T07:41:59.780Z,10.57
2022-11-07T07:42:59.800Z,10.54
2022-11-07T07:43:59.833Z,10.54
2022-11-07T07:44:59.861Z,10.57
2022-11-07T07:45:59.932Z,10.66
2022-11-07T07:46:59.922Z,10.65
2022-11-07T07:47:59.956Z,10.63
2022-11-07T07:48:59.989Z,10.70
2022-11-07T07:50:00.024Z,10.60
2022-11-07T07:51:00.047Z,10.68
2022-11-07T07:52:00.086Z,10.63
2022-11-07T07:53:01.541Z,10.63
2022-11-07T07:54:00.252Z,10.72
2022-11-07T07:55:00.170Z,10.63
2022-11-07T07:56:00.201Z,10.68
2022-11-07T07:57:00.237Z,10.66
2022-11-07T07:58:00.266Z,10.75
2022-11-07T07:59:00.293Z,10.72
2022-11-07T08:00:00.330Z,10.72
2022-11-07T08:01:00.409Z,10.66
2022-11-07T08:02:00.499Z,10.70
2022-11-07T08:03:00.420Z,10.63
2022-11-07T08:04:02.353Z,10.65
2022-11-07T08:05:00.483Z,10.58
2022-11-07T08:06:00.515Z,10.62
2022-11-07T08:07:00.542Z,10.70
2022-11-07T08:08:00.577Z,10.68
2022-11-07T08:09:00.606Z,10.73
2022-11-07T08:10:09.830Z,10.70
2022-11-07T08:11:00.667Z,10.75
2022-11-07T08:12:00.698Z,10.80
2022-11-07T08:13:00.730Z,10.80
2022-11-07T08:14:01.777Z,10.86
2022-11-07T08:15:00.796Z,10.86
2022-11-07T08:16:00.824Z,10.88
2022-11-07T08:17:00.853Z,10.88
2022-11-07T08:18:00.885Z,11.02
2022-11-07T08:19:00.914Z,10.99
2022-11-07T08:20:00.946Z,10.99
2022-11-07T08:21:00.975Z,11.02
2022-11-07T08:22:01.012Z,11.08
2022-11-07T08:23:01.037Z,11.05
2022-11-07T08:24:01.074Z,11.11
2022-11-07T08:25:01.102Z,11.21
2022-11-07T08:26:01.233Z,11.13
2022-11-07T08:27:01.163Z,11.21
2022-11-07T08:28:01.193Z,11.26
2022-11-07T08:29:01.269Z,11.28
2022-11-07T08:30:01.256Z,11.31
2022-11-07T08:31:01.289Z,11.36
2022-11-07T08:32:01.320Z,11.35
2022-11-07T08:33:01.351Z,11.39
2022-11-07T08:34:01.444Z,11.46
2022-11-07T08:35:01.411Z,11.53
2022-11-07T08:36:01.444Z,11.57
2022-11-07T08:37:01.475Z,11.59
2022-11-07T08:38:01.508Z,11.59
2022-11-07T08:39:01.538Z,11.67
2022-11-07T08:40:01.568Z,11.64
2022-11-07T08:41:01.600Z,11.75
2022-11-07T08:42:01.633Z,11.69
2022-11-07T08:43:01.671Z,11.90
2022-11-07T08:44:01.694Z,11.90
2022-11-07T08:45:01.726Z,11.90
2022-11-07T08:46:01.757Z,11.98
2022-11-07T08:47:07.314Z,12.04
2022-11-07T08:48:01.823Z,12.04
2022-11-07T08:49:01.850Z,12.15
2022-11-07T08:50:01.884Z,12.08
2022-11-07T08:51:01.911Z,12.03
2022-11-07T08:52:01.944Z,12.05
2022-11-07T08:53:03.265Z,12.11
2022-11-07T08:54:02.007Z,11.97
2022-11-07T08:55:02.057Z,11.98
2022-11-07T08:56:02.076Z,12.00
2022-11-07T08:57:02.108Z,11.96
2022-11-07T08:58:02.141Z,11.98
2022-11-07T08:59:02.165Z,11.90
2022-11-07T09:00:02.201Z,11.90
2022-11-07T09:01:02.277Z,11.96
2022-11-07T09:02:44.681Z,11.88
2022-11-07T09:04:02.472Z,11.88
2022-11-07T09:05:02.354Z,11.97
2022-11-07T09:06:02.390Z,11.96
2022-11-07T09:07:02.418Z,11.93
2022-11-07T09:08:02.467Z,11.98
2022-11-07T09:09:02.481Z,12.04
2022-11-07T09:10:02.514Z,12.15
2022-11-07T09:11:02.545Z,12.12
2022-11-07T09:12:02.579Z,12.03
2022-11-07T09:13:02.632Z,12.15
2022-11-07T09:14:02.642Z,12.18
2022-11-07T09:15:02.672Z,12.29
2022-11-07T09:16:02.705Z,12.31
2022-11-07T09:17:02.756Z,12.21
2022-11-07T09:18:02.769Z,12.18
2022-11-07T09:19:02.840Z,12.21
2022-11-07T09:20:02.831Z,12.21
2022-11-07T09:21:02.862Z,12.21
2022-11-07T09:22:02.893Z,12.22
2022-11-07T09:23:02.926Z,12.26
2022-11-07T09:24:02.958Z,12.29
2022-11-07T09:25:02.992Z,12.30
2022-11-07T09:26:03.024Z,12.38
2022-11-07T09:27:03.054Z,12.30
2022-11-07T09:28:03.088Z,12.30
2022-11-07T09:29:03.120Z,12.40
2022-11-07T09:30:03.272Z,12.41
2022-11-07T09:31:03.180Z,12.34
2022-11-07T09:32:23.467Z,12.43
2022-11-07T09:33:03.253Z,12.43
2022-11-07T09:34:03.277Z,12.55
2022-11-07T09:35:05.094Z,12.51
2022-11-07T09:36:03.435Z,12.48
2022-11-07T09:37:03.372Z,12.58
2022-11-07T09:38:03.405Z,12.48
2022-11-07T09:39:03.442Z,12.55
2022-11-07T09:40:03.472Z,12.66
2022-11-07T09:41:03.503Z,12.71
2022-11-07T09:42:03.532Z,12.59
2022-11-07T09:43:03.563Z,12.71
2022-11-07T09:44:04.890Z,12.71
2022-11-07T09:45:03.629Z,12.63
2022-11-07T09:46:03.779Z,12.74
2022-11-07T09:47:03.690Z,12.74
2022-11-07T09:48:03.725Z,12.69
2022-11-07T09:49:03.756Z,12.67
2022-11-07T09:50:03.790Z,12.71
2022-11-07T09:51:03.822Z,12.88
2022-11-07T09:52:03.860Z,12.74
2022-11-07T09:53:03.883Z,12.89
2022-11-07T09:54:03.919Z,12.95
2022-11-07T09:55:03.951Z,12.92
2022-11-07T09:56:03.988Z,13.04
2022-11-07T09:57:04.017Z,13.19
2022-11-07T09:58:04.047Z,13.36
2022-11-07T09:59:04.079Z,13.50
2022-11-07T10:00:04.113Z,13.63
2022-11-07T10:01:04.187Z,13.79
2022-11-07T10:02:04.237Z,13.83
2022-11-07T10:03:04.208Z,13.93
2022-11-07T10:04:24.220Z,14.26
2022-11-07T10:05:04.271Z,14.56
2022-11-07T10:06:04.304Z,14.87
2022-11-07T10:07:04.337Z,15.44
2022-11-07T10:08:04.369Z,15.78
2022-11-07T10:09:04.402Z,16.40
2022-11-07T10:10:04.434Z,17.07
2022-11-07T10:11:04.467Z,17.63
2022-11-07T10:12:04.500Z,18.21
2022-11-07T10:13:04.540Z,18.49
2022-11-07T10:14:04.568Z,18.50
2022-11-07T10:15:04.601Z,18.50
2022-11-07T10:16:04.639Z,18.57
2022-11-07T10:17:04.670Z,18.72
2022-11-07T10:18:04.704Z,18.82
2022-11-07T10:19:04.738Z,19.13
2022-11-07T10:20:04.859Z,19.52
2022-11-07T10:21:35.890Z,19.98
2022-11-07T10:22:04.847Z,20.46
2022-11-07T10:23:04.878Z,20.72
2022-11-07T10:24:04.915Z,21.15
2022-11-07T10:25:04.963Z,21.40
2022-11-07T10:26:04.988Z,21.64
2022-11-07T10:27:05.023Z,21.64
2022-11-07T10:28:05.061Z,21.45
2022-11-07T10:29:05.096Z,21.48
2022-11-07T10:30:05.137Z,21.26
2022-11-07T10:31:05.177Z,20.94
2022-11-07T10:32:05.205Z,20.75
2022-11-07T10:33:05.274Z,20.68
2022-11-07T10:34:05.303Z,20.60
2022-11-07T10:35:05.313Z,20.63
2022-11-07T10:36:05.351Z,20.71
2022-11-07T10:37:05.391Z,20.88
2022-11-07T10:38:05.425Z,20.88
2022-11-07T10:39:05.461Z,21.05
2022-11-07T10:40:10.953Z,21.06
2022-11-07T10:41:05.532Z,21.30
2022-11-07T10:42:05.572Z,21.33
2022-11-07T10:43:05.607Z,21.30
2022-11-07T10:44:05.751Z,21.30
2022-11-07T10:45:05.682Z,21.34
2022-11-07T10:46:05.722Z,21.30
2022-11-07T10:47:05.758Z,21.26
2022-11-07T10:48:05.795Z,20.83
2022-11-07T10:49:05.829Z,20.60
2022-11-07T10:50:05.876Z,20.64
2022-11-07T10:51:05.903Z,20.60
2022-11-07T10:52:05.943Z,20.79
2022-11-07T10:53:05.978Z,21.05
2022-11-07T10:54:06.017Z,21.31
2022-11-07T10:55:06.051Z,21.79
2022-11-07T10:56:06.090Z,22.30
2022-11-07T10:57:06.127Z,22.67
2022-11-07T10:58:06.171Z,22.96
2022-11-07T10:59:06.202Z,23.57
2022-11-07T11:00:06.241Z,23.97
2022-11-07T11:01:06.429Z,24.24
2022-11-07T11:02:06.341Z,24.97
2022-11-07T11:03:06.352Z,25.41
2022-11-07T11:04:06.388Z,25.86
2022-11-07T11:05:06.431Z,26.06
2022-11-07T11:06:06.466Z,26.57
2022-11-07T11:07:06.499Z,26.79
2022-11-07T11:08:06.538Z,26.83
2022-11-07T11:09:06.594Z,26.75
2022-11-07T11:10:06.614Z,26.51
2022-11-07T11:11:06.708Z,26.12
2022-11-07T11:12:06.687Z,25.81
2022-11-07T11:13:06.730Z,25.59
2022-11-07T11:14:06.771Z,25.20
2022-11-07T11:15:06.802Z,24.82
2022-11-07T11:16:06.899Z,24.56
2022-11-07T11:17:06.973Z,24.45
2022-11-07T11:18:06.936Z,24.18
2022-11-07T11:19:06.972Z,24.04
2022-11-07T11:20:06.993Z,23.84
2022-11-07T11:21:07.032Z,23.68
2022-11-07T11:22:09.635Z,23.57
2022-11-07T11:23:07.111Z,23.32
2022-11-07T11:24:07.149Z,23.03
2022-11-07T11:25:07.188Z,22.78
2022-11-07T11:26:07.227Z,22.52
2022-11-07T11:27:07.266Z,22.39
2022-11-07T11:28:07.304Z,22.17
2022-11-07T11:29:07.351Z,21.90
2022-11-07T11:30:07.383Z,21.85
2022-11-07T11:31:07.422Z,21.67
2022-11-07T11:32:07.462Z,21.43
2022-11-07T11:33:07.510Z,21.27
2022-11-07T11:34:07.541Z,21.09
2022-11-07T11:35:07.585Z,20.94
2022-11-07T11:36:07.622Z,20.79
2022-11-07T11:37:07.661Z,20.75
2022-11-07T11:38:07.758Z,20.57
2022-11-07T11:39:07.739Z,20.25
2022-11-07T11:40:07.778Z,20.10
2022-11-07T11:41:10.794Z,20.02
2022-11-07T11:42:07.855Z,19.92
2022-11-07T11:43:07.895Z,19.72
2022-11-07T11:44:07.936Z,19.60
2022-11-07T11:45:07.975Z,19.53
2022-11-07T11:46:08.014Z,19.65
2022-11-07T11:47:08.056Z,19.49
2022-11-07T11:48:08.092Z,19.65
2022-11-07T11:49:08.131Z,19.55
2022-11-07T11:50:08.170Z,19.60
2022-11-07T11:51:08.209Z,19.58
2022-11-07T11:52:08.248Z,19.27
2022-11-07T11:53:08.287Z,19.25
2022-11-07T11:54:08.325Z,19.06
2022-11-07T11:55:08.364Z,18.97
2022-11-07T11:56:08.403Z,19.10
2022-11-07T11:57:08.449Z,19.13
2022-11-07T11:58:08.480Z,19.35
2022-11-07T11:59:08.520Z,19.47
2022-11-07T12:00:08.556Z,19.60
2022-11-07T12:01:08.596Z,19.80
2022-11-07T12:02:08.668Z,19.97
2022-11-07T12:03:08.673Z,20.15
2022-11-07T12:04:08.708Z,20.02
2022-11-07T12:05:08.749Z,20.16
2022-11-07T12:06:08.785Z,20.13
2022-11-07T12:07:08.839Z,20.33
2022-11-07T12:08:08.861Z,20.76
2022-11-07T12:09:10.546Z,21.30
2022-11-07T12:10:08.940Z,21.77
2022-11-07T12:11:08.975Z,22.06
2022-11-07T12:12:09.013Z,22.24
2022-11-07T12:13:09.062Z,22.35
2022-11-07T12:14:09.087Z,22.24
2022-11-07T12:15:09.128Z,21.96
2022-11-07T12:16:09.163Z,21.96
2022-11-07T12:17:09.200Z,21.93
2022-11-07T12:18:09.238Z,21.71
2022-11-07T12:19:09.281Z,21.56
2022-11-07T12:20:09.311Z,21.43
2022-11-07T12:21:09.351Z,21.38
2022-11-07T12:22:09.389Z,21.38
2022-11-07T12:23:09.430Z,21.13
2022-11-07T12:24:09.462Z,20.93
2022-11-07T12:25:16.711Z,20.85
2022-11-07T12:27:02.484Z,20.56
2022-11-07T12:28:02.517Z,20.46
2022-11-07T12:30:06.632Z,20.57
2022-11-07T12:31:06.631Z,20.63
2022-11-07T12:33:10.731Z,20.56
2022-11-07T12:34:10.737Z,20.56
2022-11-07T12:36:14.777Z,20.87
2022-11-07T12:37:14.800Z,20.94
2022-11-07T12:39:07.975Z,21.15
2022-11-07T12:40:08.004Z,21.27
2022-11-07T12:42:12.209Z,21.19
2022-11-07T12:43:12.136Z,21.19
2022-11-07T12:45:16.249Z,21.15
2022-11-07T12:46:16.233Z,21.15
2022-11-07T12:48:13.264Z,21.24
2022-11-07T12:49:09.440Z,21.09
2022-11-07T12:51:02.643Z,20.85
2022-11-07T12:52:02.689Z,20.66
2022-11-07T12:54:06.748Z,20.04
2022-11-07T12:55:06.729Z,19.78
2022-11-07T12:56:59.706Z,19.28
2022-11-07T12:57:59.746Z,19.05
2022-11-07T12:59:53.079Z,18.46
2022-11-07T13:00:52.967Z,18.25
2022-11-07T13:02:56.980Z,17.99
2022-11-07T13:03:57.015Z,17.98
2022-11-07T13:05:49.995Z,17.66
2022-11-07T13:06:50.027Z,17.66
2022-11-07T13:08:43.087Z,17.63
2022-11-07T13:09:43.081Z,17.49
2022-11-07T13:11:47.144Z,17.32
2022-11-07T13:12:47.182Z,17.32
2022-11-07T13:14:51.423Z,17.20
2022-11-07T13:16:14.439Z,17.05
2022-11-07T13:17:55.325Z,16.82
2022-11-07T13:18:55.359Z,16.87
2022-11-07T13:20:59.508Z,16.81
2022-11-07T13:21:59.466Z,16.69
2022-11-07T13:24:03.521Z,16.70
2022-11-07T13:25:06.773Z,16.72
2022-11-07T13:26:56.541Z,16.69
2022-11-07T13:27:56.570Z,16.57
2022-11-07T13:29:49.730Z,16.40
2022-11-07T13:30:49.762Z,16.42
2022-11-07T13:32:53.846Z,16.14
2022-11-07T13:33:53.871Z,16.13
2022-11-07T13:35:57.928Z,16.07
2022-11-07T13:36:57.958Z,16.06
2022-11-07T13:39:02.017Z,16.01
2022-11-07T13:40:02.041Z,16.01
2022-11-07T13:41:55.213Z,16.01
2022-11-07T13:42:55.271Z,15.86
2022-11-07T13:44:59.301Z,15.89
2022-11-07T13:45:59.331Z,15.93
2022-11-07T13:47:52.534Z,15.92
2022-11-07T13:48:52.521Z,15.84
2022-11-07T13:50:56.623Z,15.89
2022-11-07T13:51:56.616Z,15.88
2022-11-07T13:54:00.670Z,15.88
2022-11-07T13:55:00.700Z,15.88
2022-11-07T13:56:53.684Z,15.88
2022-11-07T13:57:53.710Z,15.77
2022-11-07T13:59:57.808Z,15.77
2022-11-07T14:00:57.906Z,15.76
2022-11-07T14:03:01.893Z,15.60
2022-11-07T14:04:01.886Z,15.59
2022-11-07T14:05:55.053Z,15.55
2022-11-07T14:06:55.085Z,15.49
2022-11-07T14:08:59.171Z,15.56
2022-11-07T14:09:59.169Z,15.55
2022-11-07T14:12:03.216Z,15.60
2022-11-07T14:13:03.244Z,15.53
2022-11-07T14:15:07.353Z,15.48
2022-11-07T14:16:07.369Z,15.48
2022-11-07T14:18:00.506Z,15.44
2022-11-07T14:19:00.534Z,15.43
2022-11-07T14:21:04.638Z,15.27
2022-11-07T14:22:04.652Z,15.33
2022-11-07T14:23:57.862Z,15.25
2022-11-07T14:24:57.851Z,15.28
2022-11-07T14:26:50.840Z,15.28
2022-11-07T14:27:50.867Z,15.31
2022-11-07T14:29:54.933Z,15.38
2022-11-07T14:30:54.964Z,15.27
2022-11-07T14:32:59.066Z,15.33
2022-11-07T14:33:59.063Z,15.25
2022-11-07T14:36:03.135Z,15.33
2022-11-07T14:37:03.162Z,15.22
2022-11-07T14:38:56.333Z,15.27
2022-11-07T14:39:56.361Z,15.23
2022-11-07T14:42:01.437Z,15.15
2022-11-07T14:43:01.527Z,15.16
2022-11-07T14:45:05.530Z,15.16
2022-11-07T14:46:12.462Z,15.18
2022-11-07T14:47:58.760Z,15.16
2022-11-07T14:48:58.754Z,15.00
2022-11-07T14:51:02.806Z,15.09
2022-11-07T14:52:02.907Z,15.03
2022-11-07T14:53:55.996Z,15.07
2022-11-07T14:54:56.025Z,15.12
2022-11-07T14:56:49.010Z,15.05
2022-11-07T14:57:49.035Z,15.03
2022-11-07T14:59:42.200Z,15.03
2022-11-07T15:00:42.230Z,14.97
2022-11-07T15:02:35.498Z,15.03
2022-11-07T15:03:35.426Z,15.03
2022-11-07T15:05:39.524Z,15.00
2022-11-07T15:06:39.528Z,14.97
2022-11-07T15:08:32.727Z,15.00
2022-11-07T15:09:32.716Z,14.98
2022-11-07T15:11:25.917Z,14.87
2022-11-07T15:12:25.916Z,14.94
2022-11-07T15:14:19.136Z,14.97
2022-11-07T15:15:19.122Z,14.98
2022-11-07T15:17:12.109Z,14.93
2022-11-07T15:18:12.125Z,14.86
2022-11-07T15:20:05.363Z,14.94
2022-11-07T15:21:05.336Z,14.82
2022-11-07T15:22:58.510Z,14.90
2022-11-07T15:23:58.530Z,14.85
2022-11-07T15:25:51.733Z,14.87
2022-11-07T15:26:51.723Z,14.85
2022-11-07T15:28:44.893Z,14.83
2022-11-07T15:29:44.918Z,14.80
2022-11-07T15:31:48.982Z,14.83
2022-11-07T15:32:49.006Z,14.82
2022-11-07T15:35:00.833Z,14.83
2022-11-07T15:35:44.879Z,14.82
2022-11-07T15:37:46.330Z,14.79
2022-11-07T15:38:46.318Z,14.75
2022-11-07T15:40:50.392Z,14.86
2022-11-07T15:41:50.414Z,14.80
2022-11-07T15:43:43.617Z,14.79
2022-11-07T15:44:43.610Z,14.80
2022-11-07T15:46:36.644Z,14.79
2022-11-07T15:47:36.634Z,14.80
2022-11-07T15:49:40.704Z,14.74
2022-11-07T15:50:40.732Z,14.75
2022-11-07T15:52:33.938Z,14.63
2022-11-07T15:53:33.928Z,14.79
2022-11-07T15:55:27.101Z,14.67
2022-11-07T15:56:27.129Z,14.75
2022-11-07T15:58:20.331Z,14.69
2022-11-07T15:59:20.310Z,14.67
2022-11-07T16:01:13.582Z,14.64
2022-11-07T16:02:13.670Z,14.64
2022-11-07T16:04:06.736Z,14.74
2022-11-07T16:05:06.707Z,14.63
2022-11-07T16:06:59.706Z,14.61
2022-11-07T16:07:59.725Z,14.61
2022-11-07T16:09:52.931Z,14.66
2022-11-07T16:10:52.924Z,14.64
2022-11-07T16:12:46.124Z,14.75
2022-11-07T16:13:46.118Z,14.75
2022-11-07T16:15:39.292Z,14.64
2022-11-07T16:16:39.318Z,14.61
2022-11-07T16:18:43.412Z,14.59
2022-11-07T16:19:43.445Z,14.56
2022-11-07T16:21:36.606Z,14.63
2022-11-07T16:22:36.635Z,14.60
2022-11-07T16:24:40.700Z,14.60
2022-11-07T16:25:40.724Z,14.61
2022-11-07T16:27:33.907Z,14.54
2022-11-07T16:28:33.932Z,14.48
2022-11-07T16:30:27.098Z,14.52
2022-11-07T16:31:27.126Z,14.56
2022-11-07T16:33:21.338Z,14.45
2022-11-07T16:34:21.331Z,14.56
2022-11-07T16:36:25.403Z,14.45
2022-11-07T16:37:25.427Z,14.48
2022-11-07T16:39:18.634Z,14.48
2022-11-07T16:40:18.627Z,14.49
2022-11-07T16:42:11.839Z,14.52
2022-11-07T16:43:11.818Z,14.46
2022-11-07T16:45:15.881Z,14.53
2022-11-07T16:46:15.907Z,14.44
2022-11-07T16:48:09.109Z,14.41
2022-11-07T16:49:09.101Z,14.45
2022-11-07T16:51:02.268Z,14.41
2022-11-07T16:52:02.301Z,14.45
2022-11-07T16:54:06.355Z,14.29
2022-11-07T16:55:06.384Z,14.31
2022-11-07T16:56:59.366Z,14.38
2022-11-07T16:57:59.388Z,14.31